createdAt,value
2023-05-06T00:01:08.361Z,15.60
2023-05-06T00:03:34.968Z,15.60
2023-05-06T00:06:05.398Z,15.60
2023-05-06T00:08:32.186Z,15.60
2023-05-06T00:10:58.722Z,15.60
2023-05-06T00:13:25.374Z,15.50
2023-05-06T00:15:52.166Z,15.30
2023-05-06T00:18:18.887Z,15.30
2023-05-06T00:20:45.528Z,15.40
2023-05-06T00:23:12.223Z,15.30
2023-05-06T00:25:38.890Z,15.30
2023-05-06T00:28:06.550Z,15.40
2023-05-06T00:30:36.313Z,15.20
2023-05-06T00:33:02.945Z,15.30
2023-05-06T00:35:30.616Z,15.20
2023-05-06T00:38:06.838Z,15.10
2023-05-06T00:40:33.510Z,15.10
2023-05-06T00:43:00.170Z,15.10
2023-05-06T00:45:26.899Z,15.10
2023-05-06T00:47:54.198Z,15.10
2023-05-06T00:50:22.005Z,15.00
2023-05-06T00:52:49.675Z,15.00
2023-05-06T00:55:17.081Z,15.00
2023-05-06T00:57:43.886Z,14.90
2023-05-06T01:00:11.671Z,14.90
2023-05-06T01:02:46.825Z,14.80
2023-05-06T01:05:15.474Z,14.80
2023-05-06T01:07:54.755Z,14.80
2023-05-06T01:10:46.317Z,14.70
2023-05-06T01:13:38.787Z,14.50
2023-05-06T01:16:08.617Z,14.50
2023-05-06T01:18:38.300Z,14.50
2023-05-06T01:21:06.190Z,14.50
2023-05-06T01:23:52.084Z,14.60
2023-05-06T01:26:18.675Z,14.50
2023-05-06T01:28:45.733Z,14.40
2023-05-06T01:31:17.470Z,14.30
2023-05-06T01:34:02.582Z,14.10
2023-05-06T01:36:53.716Z,14.00
2023-05-06T01:39:29.833Z,14.00
2023-05-06T01:41:59.270Z,14.00
2023-05-06T01:44:28.813Z,13.90
2023-05-06T01:46:57.029Z,13.90
2023-05-06T01:49:24.922Z,13.90
2023-05-06T01:51:52.264Z,13.80
2023-05-06T01:54:19.187Z,13.60
2023-05-06T01:56:45.790Z,13.60
2023-05-06T01:59:12.717Z,13.60
2023-05-06T02:01:39.449Z,13.60
2023-05-06T02:04:06.049Z,13.40
2023-05-06T02:06:33.129Z,13.50
2023-05-06T02:09:00.059Z,13.30
2023-05-06T02:11:28.107Z,13.30
2023-05-06T02:13:55.098Z,13.20
2023-05-06T02:16:24.956Z,13.30
2023-05-06T02:18:51.695Z,13.20
2023-05-06T02:21:18.328Z,13.20
2023-05-06T02:23:44.947Z,13.20
2023-05-06T02:26:11.617Z,13.20
2023-05-06T02:28:38.234Z,13.20
2023-05-06T02:31:04.835Z,13.20
2023-05-06T02:33:31.492Z,13.20
2023-05-06T02:35:58.040Z,13.10
2023-05-06T02:38:24.887Z,13.00
2023-05-06T02:40:51.518Z,13.00
2023-05-06T02:43:18.152Z,13.00
2023-05-06T02:45:45.105Z,12.90
2023-05-06T02:48:11.721Z,12.90
2023-05-06T02:50:39.466Z,12.80
2023-05-06T02:53:06.193Z,12.80
2023-05-06T02:55:32.896Z,12.80
2023-05-06T02:57:59.489Z,12.70
2023-05-06T03:00:26.101Z,12.60
2023-05-06T03:02:52.696Z,12.70
2023-05-06T03:05:19.591Z,12.60
2023-05-06T03:07:46.398Z,12.50
2023-05-06T03:10:13.221Z,12.50
2023-05-06T03:12:39.932Z,12.50
2023-05-06T03:15:07.109Z,12.50
2023-05-06T03:17:33.929Z,12.60
2023-05-06T03:20:00.683Z,12.50
2023-05-06T03:22:27.307Z,12.50
2023-05-06T03:24:53.859Z,12.60
2023-05-06T03:27:20.507Z,12.60
2023-05-06T03:29:47.168Z,12.60
2023-05-06T03:32:13.800Z,12.50
2023-05-06T03:34:40.391Z,12.60
2023-05-06T03:37:07.362Z,12.40
2023-05-06T03:39:34.020Z,12.40
2023-05-06T03:42:00.982Z,12.40
2023-05-06T03:44:27.590Z,12.40
2023-05-06T03:46:54.243Z,12.40
2023-05-06T03:49:21.043Z,12.30
2023-05-06T03:51:47.818Z,12.40
2023-05-06T03:54:14.500Z,12.40
2023-05-06T03:56:41.199Z,12.50
2023-05-06T03:59:08.886Z,12.50
2023-05-06T04:01:35.578Z,12.50
2023-05-06T04:04:02.435Z,12.50
2023-05-06T04:06:29.118Z,12.40
2023-05-06T04:08:55.893Z,12.40
2023-05-06T04:11:22.550Z,12.40
2023-05-06T04:13:49.153Z,12.40
2023-05-06T04:16:15.895Z,12.40
2023-05-06T04:18:43.945Z,12.50
2023-05-06T04:21:13.383Z,12.40
2023-05-06T04:23:41.537Z,12.40
2023-05-06T04:26:08.170Z,12.40
2023-05-06T04:28:34.786Z,12.40
2023-05-06T04:31:02.430Z,12.40
2023-05-06T04:33:29.922Z,12.40
2023-05-06T04:35:56.579Z,12.40
2023-05-06T04:38:25.613Z,12.50
2023-05-06T04:40:52.819Z,12.50
2023-05-06T04:43:19.695Z,12.40
2023-05-06T04:45:49.426Z,12.50
2023-05-06T04:48:22.025Z,12.60
2023-05-06T04:50:49.875Z,12.60
2023-05-06T04:53:17.101Z,12.60
2023-05-06T04:55:44.023Z,12.80
2023-05-06T04:58:10.762Z,12.70
2023-05-06T05:00:37.425Z,12.70
2023-05-06T05:03:04.239Z,12.80
2023-05-06T05:05:32.371Z,12.80
2023-05-06T05:08:06.290Z,12.90
2023-05-06T05:10:33.067Z,12.90
2023-05-06T05:12:59.848Z,12.90
2023-05-06T05:15:26.544Z,13.00
2023-05-06T05:17:53.220Z,13.10
2023-05-06T05:20:20.268Z,13.20
2023-05-06T05:22:47.052Z,13.20
2023-05-06T05:25:14.295Z,13.20
2023-05-06T05:27:42.953Z,13.10
2023-05-06T05:30:10.173Z,13.20
2023-05-06T05:32:36.839Z,13.40
2023-05-06T05:35:03.932Z,13.30
2023-05-06T05:37:31.417Z,13.30
2023-05-06T05:39:58.526Z,13.40
2023-05-06T05:42:25.201Z,13.60
2023-05-06T05:44:51.847Z,13.80
2023-05-06T05:47:18.667Z,13.90
2023-05-06T05:49:45.600Z,13.90
2023-05-06T05:52:12.212Z,14.00
2023-05-06T05:54:44.643Z,14.00
2023-05-06T05:57:11.361Z,14.10
2023-05-06T05:59:38.045Z,14.00
2023-05-06T06:02:05.130Z,14.10
2023-05-06T06:04:31.846Z,14.10
2023-05-06T06:06:58.720Z,14.20
2023-05-06T06:09:25.439Z,14.10
2023-05-06T06:11:52.292Z,14.20
2023-05-06T06:14:18.942Z,14.20
2023-05-06T06:16:45.780Z,14.30
2023-05-06T06:19:13.804Z,14.50
2023-05-06T06:21:40.488Z,14.60
2023-05-06T06:24:07.274Z,14.80
2023-05-06T06:26:34.008Z,14.80
2023-05-06T06:29:01.066Z,15.00
2023-05-06T06:31:29.299Z,14.90
2023-05-06T06:33:57.192Z,15.00
2023-05-06T06:36:23.906Z,15.00
2023-05-06T06:38:50.647Z,15.10
2023-05-06T06:41:17.544Z,15.20
2023-05-06T06:43:44.186Z,15.30
2023-05-06T06:46:10.908Z,15.40
2023-05-06T06:48:37.610Z,15.50
2023-05-06T06:51:04.564Z,15.70
2023-05-06T06:53:31.351Z,15.90
2023-05-06T06:55:58.071Z,16.00
2023-05-06T06:58:25.741Z,16.00
2023-05-06T07:00:52.490Z,16.10
2023-05-06T07:03:19.739Z,16.20
2023-05-06T07:05:50.191Z,16.10
2023-05-06T07:08:17.007Z,16.20
2023-05-06T07:10:43.645Z,16.20
2023-05-06T07:13:10.519Z,16.30
2023-05-06T07:15:37.114Z,16.30
2023-05-06T07:18:03.771Z,16.50
2023-05-06T07:20:30.739Z,16.60
2023-05-06T07:22:58.413Z,16.80
2023-05-06T07:25:25.492Z,17.00
2023-05-06T07:27:52.231Z,17.10
2023-05-06T07:30:22.929Z,17.30
2023-05-06T07:32:51.100Z,17.30
2023-05-06T07:35:18.895Z,17.40
2023-05-06T07:37:48.690Z,17.40
2023-05-06T07:40:15.491Z,17.40
2023-05-06T07:42:43.080Z,17.40
2023-05-06T07:45:10.479Z,17.60
2023-05-06T07:47:37.444Z,17.70
2023-05-06T07:50:06.702Z,17.80
2023-05-06T07:52:33.452Z,18.00
2023-05-06T07:55:00.183Z,18.20
2023-05-06T07:57:26.942Z,18.10
2023-05-06T07:59:54.338Z,18.00
2023-05-06T08:02:26.097Z,18.20
2023-05-06T08:04:53.197Z,18.30
2023-05-06T08:07:19.955Z,18.30
2023-05-06T08:09:46.773Z,18.20
2023-05-06T08:12:13.594Z,18.30
2023-05-06T08:14:40.720Z,18.50
2023-05-06T08:17:07.340Z,18.70
2023-05-06T08:19:34.058Z,18.70
2023-05-06T08:22:00.703Z,18.80
2023-05-06T08:24:28.223Z,18.90
2023-05-06T08:26:55.126Z,19.10
2023-05-06T08:29:21.725Z,19.20
2023-05-06T08:31:48.381Z,19.00
2023-05-06T08:34:18.491Z,19.00
2023-05-06T08:36:45.295Z,18.80
2023-05-06T08:39:12.535Z,18.80
2023-05-06T08:41:40.748Z,18.70
2023-05-06T08:44:08.483Z,18.90
2023-05-06T08:46:35.759Z,18.80
2023-05-06T08:49:02.996Z,19.00
2023-05-06T08:51:31.743Z,19.20
2023-05-06T08:54:02.066Z,19.40
2023-05-06T08:56:32.640Z,19.30
2023-05-06T08:58:59.665Z,19.50
2023-05-06T09:01:28.786Z,19.40
2023-05-06T09:03:56.879Z,19.40
2023-05-06T09:06:24.258Z,19.40
2023-05-06T09:08:50.896Z,19.30
2023-05-06T09:11:29.659Z,19.20
2023-05-06T09:14:14.240Z,19.10
2023-05-06T09:16:44.027Z,19.00
2023-05-06T09:19:11.371Z,19.20
2023-05-06T09:21:40.216Z,19.40
2023-05-06T09:24:08.356Z,19.60
2023-05-06T09:26:36.872Z,19.90
2023-05-06T09:29:04.821Z,20.20
2023-05-06T09:31:31.850Z,20.10
2023-05-06T09:34:01.082Z,20.40
2023-05-06T09:36:28.518Z,20.50
2023-05-06T09:38:56.445Z,20.70
2023-05-06T09:41:25.319Z,20.60
2023-05-06T09:43:56.436Z,20.70
2023-05-06T09:46:24.465Z,21.00
2023-05-06T09:48:53.044Z,21.00
2023-05-06T09:51:20.787Z,20.80
2023-05-06T09:53:48.061Z,20.70
2023-05-06T09:56:16.309Z,20.60
2023-05-06T09:58:44.621Z,20.50
2023-05-06T10:01:19.209Z,20.40
2023-05-06T10:03:59.415Z,20.20
2023-05-06T10:06:28.896Z,20.20
2023-05-06T10:08:56.857Z,20.10
2023-05-06T10:11:23.780Z,20.00
2023-05-06T10:13:51.220Z,20.20
2023-05-06T10:16:19.206Z,20.40
2023-05-06T10:18:47.617Z,20.70
2023-05-06T10:21:22.031Z,20.50
2023-05-06T10:24:02.176Z,20.30
2023-05-06T10:26:31.232Z,20.20
2023-05-06T10:29:00.706Z,20.20
2023-05-06T10:31:30.122Z,20.00
2023-05-06T10:34:00.901Z,20.20
2023-05-06T10:36:32.063Z,20.50
2023-05-06T10:39:03.840Z,20.70
2023-05-06T10:41:32.000Z,20.70
2023-05-06T10:43:59.930Z,20.90
2023-05-06T10:46:30.677Z,21.20
2023-05-06T10:49:06.762Z,21.30
2023-05-06T10:51:38.996Z,21.60
2023-05-06T10:54:07.170Z,21.80
2023-05-06T10:56:35.036Z,21.60
2023-05-06T10:59:10.068Z,21.50
2023-05-06T11:01:37.813Z,21.40
2023-05-06T11:04:08.769Z,21.60
2023-05-06T11:06:37.510Z,21.60
2023-05-06T11:09:05.694Z,21.60
2023-05-06T11:12:02.816Z,21.90
2023-05-06T11:14:30.507Z,22.20
2023-05-06T11:16:59.241Z,22.20
2023-05-06T11:19:27.929Z,22.00
2023-05-06T11:21:57.682Z,21.60
2023-05-06T11:24:44.665Z,21.50
2023-05-06T11:27:11.518Z,21.30
2023-05-06T11:29:41.055Z,21.00
2023-05-06T11:32:23.121Z,20.90
2023-05-06T11:34:49.810Z,20.90
2023-05-06T11:37:25.833Z,21.10
2023-05-06T11:39:52.847Z,21.20
2023-05-06T11:42:27.755Z,21.20
2023-05-06T11:45:01.924Z,21.10
2023-05-06T11:47:28.608Z,21.30
2023-05-06T11:49:56.547Z,21.80
2023-05-06T11:52:23.285Z,22.30
2023-05-06T11:54:53.493Z,22.50
2023-05-06T11:57:20.792Z,22.60
2023-05-06T11:59:53.216Z,22.90
2023-05-06T12:02:20.267Z,22.80
2023-05-06T12:04:49.990Z,22.50
2023-05-06T12:07:17.613Z,22.40
2023-05-06T12:09:47.498Z,22.10
2023-05-06T12:12:22.294Z,21.70
2023-05-06T12:14:49.476Z,21.50
2023-05-06T12:17:16.887Z,21.40
2023-05-06T12:19:43.703Z,21.30
2023-05-06T12:22:19.490Z,21.40
2023-05-06T12:24:47.758Z,21.40
2023-05-06T12:27:15.419Z,21.40
2023-05-06T12:29:52.864Z,21.70
2023-05-06T12:32:19.526Z,21.60
2023-05-06T12:34:46.151Z,21.60
2023-05-06T12:37:24.946Z,21.50
2023-05-06T12:39:51.731Z,21.30
2023-05-06T12:42:24.472Z,21.30
2023-05-06T12:44:51.080Z,21.30
2023-05-06T12:47:27.131Z,21.30
2023-05-06T12:49:59.105Z,21.20
2023-05-06T12:52:28.706Z,21.30
2023-05-06T12:54:55.687Z,21.30
2023-05-06T12:57:22.982Z,21.40
2023-05-06T12:59:50.751Z,21.40
2023-05-06T13:02:17.765Z,21.40
2023-05-06T13:04:46.601Z,21.60
2023-05-06T13:07:13.472Z,21.70
2023-05-06T13:09:43.061Z,21.90
2023-05-06T13:12:09.766Z,22.00
2023-05-06T13:14:39.232Z,22.10
2023-05-06T13:17:07.400Z,22.10
2023-05-06T13:19:34.648Z,22.60
2023-05-06T13:22:01.744Z,22.80
2023-05-06T13:24:29.023Z,22.90
2023-05-06T13:27:00.712Z,22.70
2023-05-06T13:29:28.094Z,22.60
2023-05-06T13:31:55.301Z,22.70
2023-05-06T13:34:22.009Z,22.50
2023-05-06T13:36:49.548Z,22.40
2023-05-06T13:39:16.676Z,22.40
2023-05-06T13:41:46.379Z,22.50
2023-05-06T13:44:13.856Z,22.30
2023-05-06T13:46:40.516Z,22.50
2023-05-06T13:49:07.289Z,22.60
2023-05-06T13:51:37.117Z,22.80
2023-05-06T13:54:04.521Z,23.10
2023-05-06T13:56:31.234Z,23.20
2023-05-06T13:58:58.495Z,23.60
2023-05-06T14:01:25.669Z,24.00
2023-05-06T14:03:53.318Z,23.90
2023-05-06T14:06:20.507Z,23.80
2023-05-06T14:08:47.255Z,23.30
2023-05-06T14:11:13.866Z,23.30
2023-05-06T14:13:41.208Z,22.90
2023-05-06T14:16:08.195Z,22.90
2023-05-06T14:18:34.837Z,22.60
2023-05-06T14:21:01.557Z,22.50
2023-05-06T14:23:28.220Z,22.50
2023-05-06T14:25:55.153Z,22.50
2023-05-06T14:28:23.591Z,22.60
2023-05-06T14:30:51.040Z,22.60
2023-05-06T14:33:17.653Z,22.60
2023-05-06T14:35:45.972Z,22.50
2023-05-06T14:38:12.673Z,22.50
2023-05-06T14:40:39.261Z,22.50
2023-05-06T14:43:08.916Z,22.40
2023-05-06T14:45:35.762Z,22.40
2023-05-06T14:48:02.793Z,22.30
2023-05-06T14:50:30.994Z,22.30
2023-05-06T14:52:57.799Z,22.40
2023-05-06T14:55:24.405Z,22.30
2023-05-06T14:57:51.150Z,22.30
2023-05-06T15:00:18.160Z,22.40
2023-05-06T15:02:45.088Z,22.50
2023-05-06T15:05:13.265Z,22.50
2023-05-06T15:07:40.274Z,22.50
2023-05-06T15:10:07.649Z,22.50
2023-05-06T15:12:34.933Z,22.50
2023-05-06T15:15:01.767Z,22.50
2023-05-06T15:17:28.692Z,22.30
2023-05-06T15:19:56.286Z,22.10
2023-05-06T15:22:23.243Z,22.10
2023-05-06T15:24:50.003Z,22.00
2023-05-06T15:27:16.689Z,22.00
2023-05-06T15:29:43.511Z,22.00
2023-05-06T15:32:10.210Z,21.90
2023-05-06T15:34:37.171Z,21.80
2023-05-06T15:37:04.013Z,21.80
2023-05-06T15:39:37.414Z,21.70
2023-05-06T15:42:04.911Z,21.70
2023-05-06T15:44:32.866Z,21.70
2023-05-06T15:46:59.585Z,21.60
2023-05-06T15:49:51.127Z,21.40
2023-05-06T15:52:12.790Z,21.40
2023-05-06T15:54:40.938Z,21.50
2023-05-06T15:57:07.846Z,21.50
2023-05-06T15:59:34.558Z,21.40
2023-05-06T16:04:32.267Z,21.10
2023-05-06T16:06:59.139Z,21.00
2023-05-06T16:09:25.939Z,21.00
2023-05-06T16:11:54.457Z,21.00
2023-05-06T16:14:21.201Z,21.00
2023-05-06T16:16:51.970Z,20.90
2023-05-06T16:19:18.657Z,20.90
2023-05-06T16:21:48.350Z,20.80
2023-05-06T16:24:15.048Z,20.80
2023-05-06T16:26:41.851Z,20.80
2023-05-06T16:29:09.958Z,20.80
2023-05-06T16:31:37.516Z,20.80
2023-05-06T16:34:06.392Z,20.70
2023-05-06T16:36:33.097Z,20.60
2023-05-06T16:38:59.791Z,20.70
2023-05-06T16:41:26.423Z,20.60
2023-05-06T16:43:56.134Z,20.60
2023-05-06T16:46:24.435Z,20.60
2023-05-06T16:48:53.429Z,20.60
2023-05-06T16:51:22.105Z,20.50
2023-05-06T16:53:48.867Z,20.50
2023-05-06T16:56:15.511Z,20.50
2023-05-06T16:58:42.857Z,20.50
2023-05-06T17:01:09.801Z,20.50
2023-05-06T17:03:38.169Z,20.40
2023-05-06T17:06:05.358Z,20.40
2023-05-06T17:08:36.163Z,20.40
2023-05-06T17:11:06.507Z,20.40
2023-05-06T17:13:33.992Z,20.30
2023-05-06T17:16:00.885Z,20.30
2023-05-06T17:18:27.632Z,20.20
2023-05-06T17:20:56.739Z,20.20
2023-05-06T17:23:23.946Z,20.30
2023-05-06T17:25:50.968Z,20.30
2023-05-06T17:31:05.865Z,20.20
2023-05-06T17:33:32.659Z,20.10
2023-05-06T17:35:59.404Z,20.10
2023-05-06T17:38:26.271Z,20.10
2023-05-06T17:40:52.936Z,20.10
2023-05-06T17:43:19.635Z,20.10
2023-05-06T17:45:46.772Z,20.00
2023-05-06T17:48:13.445Z,20.00
2023-05-06T17:50:40.122Z,19.90
2023-05-06T17:53:06.937Z,19.90
2023-05-06T17:55:33.832Z,19.90
2023-05-06T17:58:00.878Z,19.90
2023-05-06T18:00:27.485Z,19.80
2023-05-06T18:02:55.120Z,19.80
2023-05-06T18:05:24.491Z,19.80
2023-05-06T18:07:52.047Z,19.70
2023-05-06T18:10:19.223Z,19.60
2023-05-06T18:12:46.175Z,19.60
2023-05-06T18:15:14.163Z,19.60
2023-05-06T18:17:40.858Z,19.60
2023-05-06T18:20:08.279Z,19.60
2023-05-06T18:22:34.995Z,19.60
2023-05-06T18:25:01.729Z,19.50
2023-05-06T18:27:29.536Z,19.40
2023-05-06T18:29:56.512Z,19.40
2023-05-06T18:32:23.121Z,19.30
2023-05-06T18:34:49.752Z,19.30
2023-05-06T18:37:18.843Z,19.30
2023-05-06T18:39:48.800Z,19.40
2023-05-06T18:42:15.895Z,19.20
2023-05-06T18:44:43.063Z,19.20
2023-05-06T18:47:09.718Z,19.20
2023-05-06T18:49:36.446Z,19.20
2023-05-06T18:52:03.318Z,19.20
2023-05-06T18:54:29.868Z,19.20
2023-05-06T18:56:58.826Z,19.20
2023-05-06T18:59:26.188Z,19.20
2023-05-06T19:01:52.900Z,19.20
2023-05-06T19:04:19.633Z,19.20
2023-05-06T19:06:46.276Z,19.20
2023-05-06T19:09:12.954Z,19.20
2023-05-06T19:11:41.820Z,19.20
2023-05-06T19:14:11.294Z,19.20
2023-05-06T19:16:38.017Z,19.20
2023-05-06T19:19:07.139Z,19.10
2023-05-06T19:21:38.357Z,19.10
2023-05-06T19:24:07.375Z,19.10
2023-05-06T19:26:34.492Z,19.00
2023-05-06T19:29:01.131Z,19.10
2023-05-06T19:31:27.740Z,19.00
2023-05-06T19:33:54.414Z,19.00
2023-05-06T19:36:21.029Z,18.90
2023-05-06T19:38:50.833Z,18.80
2023-05-06T19:41:18.178Z,18.70
2023-05-06T19:43:44.974Z,18.60
2023-05-06T19:46:12.195Z,18.50
2023-05-06T19:48:39.245Z,18.50
2023-05-06T19:51:06.492Z,18.50
2023-05-06T19:53:34.135Z,18.40
2023-05-06T19:56:11.217Z,18.40
2023-05-06T19:58:39.474Z,18.30
2023-05-06T20:01:06.192Z,18.20
2023-05-06T20:03:37.481Z,18.20
2023-05-06T20:06:04.413Z,18.20
2023-05-06T20:08:31.133Z,18.20
2023-05-06T20:11:01.096Z,18.00
2023-05-06T20:13:30.322Z,18.00
2023-05-06T20:15:57.307Z,17.90
2023-05-06T20:18:24.237Z,17.90
2023-05-06T20:20:50.896Z,17.80
2023-05-06T20:23:17.440Z,17.80
2023-05-06T20:25:44.015Z,17.80
2023-05-06T20:28:10.938Z,17.70
2023-05-06T20:30:38.315Z,17.80
2023-05-06T20:33:05.139Z,17.80
2023-05-06T20:35:31.837Z,17.70
2023-05-06T20:37:58.441Z,17.80
2023-05-06T20:40:25.225Z,17.70
2023-05-06T20:42:51.827Z,17.70
2023-05-06T20:45:18.501Z,17.70
2023-05-06T20:47:45.353Z,17.60
2023-05-06T20:50:16.924Z,17.60
2023-05-06T20:52:45.547Z,17.60
2023-05-06T20:55:14.542Z,17.60
2023-05-06T20:57:44.681Z,17.60
2023-05-06T21:00:11.817Z,17.60
2023-05-06T21:02:41.420Z,17.60
2023-05-06T21:05:09.832Z,17.60
2023-05-06T21:07:36.792Z,17.60
2023-05-06T21:10:05.559Z,17.50
2023-05-06T21:12:33.302Z,17.50
2023-05-06T21:15:00.676Z,17.50
2023-05-06T21:17:28.612Z,17.50
2023-05-06T21:19:55.284Z,17.50
2023-05-06T21:22:25.597Z,17.50
2023-05-06T21:24:52.205Z,17.50
2023-05-06T21:27:18.828Z,17.50
2023-05-06T21:29:45.448Z,17.40
2023-05-06T21:32:12.298Z,17.40
2023-05-06T21:34:39.030Z,17.40
2023-05-06T21:37:05.688Z,17.40
2023-05-06T21:39:32.402Z,17.20
2023-05-06T21:41:59.151Z,17.20
2023-05-06T21:44:25.951Z,17.10
2023-05-06T21:46:52.733Z,17.00
2023-05-06T21:49:21.843Z,17.10
2023-05-06T21:51:48.779Z,17.00
2023-05-06T21:54:17.138Z,17.00
2023-05-06T21:56:43.872Z,16.90
2023-05-06T21:59:10.558Z,16.90
2023-05-06T22:01:37.272Z,16.90
2023-05-06T22:04:09.336Z,16.90
2023-05-06T22:06:40.385Z,16.80
2023-05-06T22:09:09.474Z,16.80
2023-05-06T22:11:38.113Z,16.70
2023-05-06T22:14:05.917Z,16.70
2023-05-06T22:16:33.929Z,16.70
2023-05-06T22:19:01.657Z,16.70
2023-05-06T22:21:30.480Z,16.70
2023-05-06T22:23:57.515Z,16.70
2023-05-06T22:26:24.353Z,16.70
2023-05-06T22:28:53.795Z,16.70
2023-05-06T22:31:22.198Z,16.70
2023-05-06T22:33:55.113Z,16.80
2023-05-06T22:36:21.819Z,16.80
2023-05-06T22:38:48.590Z,16.80
2023-05-06T22:41:15.885Z,16.80
2023-05-06T22:43:42.549Z,16.80
2023-05-06T22:46:09.127Z,16.70
2023-05-06T22:48:36.030Z,16.70
2023-05-06T22:51:02.659Z,16.80
2023-05-06T22:53:29.334Z,16.80
2023-05-06T22:55:55.892Z,16.80
2023-05-06T22:58:22.750Z,16.70
2023-05-06T23:00:49.510Z,16.60
2023-05-06T23:03:18.221Z,16.70
2023-05-06T23:05:44.902Z,16.70
2023-05-06T23:08:11.505Z,16.60
2023-05-06T23:10:38.187Z,16.60
2023-05-06T23:13:04.990Z,16.60
2023-05-06T23:15:31.920Z,16.60
2023-05-06T23:17:58.612Z,16.70
2023-05-06T23:20:25.214Z,16.60
2023-05-06T23:22:51.998Z,16.70
2023-05-06T23:25:18.899Z,16.60
2023-05-06T23:27:48.496Z,16.60
2023-05-06T23:30:15.290Z,16.60
2023-05-06T23:32:41.982Z,16.60
2023-05-06T23:35:09.358Z,16.60
2023-05-06T23:37:36.194Z,16.60
2023-05-06T23:40:04.069Z,16.60
2023-05-06T23:42:30.836Z,16.60
2023-05-06T23:44:59.958Z,16.60
2023-05-06T23:47:26.607Z,16.50
2023-05-06T23:49:53.274Z,16.50
2023-05-06T23:52:19.915Z,16.40
2023-05-06T23:54:46.570Z,16.30
2023-05-06T23:57:13.290Z,16.30
2023-05-06T23:59:39.948Z,16.30
